createdAt,value
2023-05-19T00:02:21.093Z,2.60
2023-05-19T00:04:49.719Z,2.80
2023-05-19T00:07:20.613Z,2.63
2023-05-19T00:09:48.369Z,2.65
2023-05-19T00:12:15.799Z,2.75
2023-05-19T00:14:43.174Z,3.08
2023-05-19T00:17:10.634Z,2.63
2023-05-19T00:19:38.242Z,2.70
2023-05-19T00:22:05.554Z,2.78
2023-05-19T00:24:33.262Z,2.35
2023-05-19T00:27:01.328Z,2.40
2023-05-19T00:29:29.221Z,2.40
2023-05-19T00:31:56.831Z,2.42
2023-05-19T00:34:24.057Z,2.10
2023-05-19T00:36:51.275Z,2.00
2023-05-19T00:39:18.329Z,2.03
2023-05-19T00:41:45.627Z,2.25
2023-05-19T00:44:12.692Z,1.83
2023-05-19T00:46:39.841Z,1.80
2023-05-19T00:49:06.818Z,1.92
2023-05-19T00:51:33.887Z,1.65
2023-05-19T00:54:01.317Z,1.70
2023-05-19T00:56:28.662Z,2.05
2023-05-19T00:58:56.046Z,1.60
2023-05-19T01:01:23.551Z,1.70
2023-05-19T01:03:51.618Z,1.90
2023-05-19T01:06:22.310Z,1.73
2023-05-19T01:08:51.799Z,1.60
2023-05-19T01:11:19.466Z,1.40
2023-05-19T01:13:46.635Z,1.40
2023-05-19T01:16:28.377Z,1.40
2023-05-19T01:19:29.272Z,1.50
2023-05-19T01:22:02.542Z,1.50
2023-05-19T01:24:47.973Z,1.45
2023-05-19T01:27:33.968Z,1.42
2023-05-19T01:30:20.074Z,1.40
2023-05-19T01:35:17.630Z,1.20
2023-05-19T01:37:46.340Z,1.00
2023-05-19T01:40:13.657Z,0.98
2023-05-19T01:42:41.698Z,1.00
2023-05-19T01:45:12.288Z,1.30
2023-05-19T01:47:43.398Z,1.10
2023-05-19T01:50:11.231Z,1.50
2023-05-19T01:52:38.600Z,1.40
2023-05-19T01:55:06.630Z,2.00
2023-05-19T01:57:33.578Z,2.70
2023-05-19T02:00:25.563Z,2.80
2023-05-19T02:02:56.644Z,2.83
2023-05-19T02:05:31.770Z,3.10
2023-05-19T02:08:06.367Z,3.15
2023-05-19T02:10:37.565Z,3.58
2023-05-19T02:13:09.193Z,3.20
2023-05-19T02:15:42.827Z,3.13
2023-05-19T02:18:11.966Z,3.17
2023-05-19T02:20:40.077Z,3.30
2023-05-19T02:23:07.359Z,3.53
2023-05-19T02:25:34.962Z,3.33
2023-05-19T02:28:02.156Z,3.55
2023-05-19T02:30:32.290Z,3.45
2023-05-19T02:33:01.422Z,3.28
2023-05-19T02:35:28.623Z,3.03
2023-05-19T02:37:55.685Z,3.05
2023-05-19T02:40:23.113Z,3.80
2023-05-19T02:42:50.473Z,2.97
2023-05-19T02:45:17.709Z,2.83
2023-05-19T02:47:44.950Z,3.10
2023-05-19T02:50:12.010Z,2.50
2023-05-19T02:52:39.198Z,3.08
2023-05-19T02:55:06.680Z,3.22
2023-05-19T02:57:35.220Z,2.90
2023-05-19T03:00:02.810Z,2.70
2023-05-19T03:02:34.330Z,3.00
2023-05-19T03:05:03.787Z,3.10
2023-05-19T03:07:33.918Z,2.80
2023-05-19T03:10:03.950Z,2.90
2023-05-19T03:12:32.626Z,3.28
2023-05-19T03:15:00.372Z,2.92
2023-05-19T03:17:33.957Z,3.60
2023-05-19T03:20:01.755Z,3.50
2023-05-19T03:22:32.418Z,3.03
2023-05-19T03:25:00.029Z,3.33
2023-05-19T03:27:27.028Z,3.03
2023-05-19T03:29:54.914Z,3.15
2023-05-19T03:32:22.498Z,3.30
2023-05-19T03:34:50.877Z,3.63
2023-05-19T03:37:18.036Z,3.80
2023-05-19T03:39:45.566Z,3.53
2023-05-19T03:42:14.097Z,3.28
2023-05-19T03:44:41.311Z,3.38
2023-05-19T03:47:08.477Z,3.42
2023-05-19T03:49:54.073Z,3.75
2023-05-19T03:52:45.603Z,3.70
2023-05-19T03:55:24.260Z,3.97
2023-05-19T03:57:52.714Z,3.92
2023-05-19T04:00:20.408Z,4.20
2023-05-19T04:02:47.562Z,4.20
2023-05-19T04:05:14.993Z,4.38
2023-05-19T04:07:43.176Z,3.90
2023-05-19T04:10:10.564Z,4.05
2023-05-19T04:12:37.552Z,4.45
2023-05-19T04:15:06.114Z,4.45
2023-05-19T04:17:33.301Z,4.18
2023-05-19T04:20:00.339Z,4.40
2023-05-19T04:22:32.284Z,4.53
2023-05-19T04:25:00.305Z,4.15
2023-05-19T04:27:29.208Z,4.65
2023-05-19T04:29:56.313Z,4.63
2023-05-19T04:32:23.521Z,4.95
2023-05-19T04:34:51.881Z,4.70
2023-05-19T04:37:24.315Z,4.53
2023-05-19T04:39:52.378Z,4.75
2023-05-19T04:42:20.998Z,4.53
2023-05-19T04:44:51.970Z,5.20
2023-05-19T04:47:21.710Z,4.80
2023-05-19T04:49:49.565Z,5.28
2023-05-19T04:52:21.833Z,5.80
2023-05-19T04:54:48.984Z,5.38
2023-05-19T04:57:16.104Z,5.45
2023-05-19T04:59:43.098Z,5.95
2023-05-19T05:02:10.568Z,5.78
2023-05-19T05:04:40.669Z,5.50
2023-05-19T05:07:07.726Z,5.68
2023-05-19T05:09:34.967Z,6.00
2023-05-19T05:12:03.361Z,6.00
2023-05-19T05:14:31.039Z,5.88
2023-05-19T05:16:58.496Z,5.80
2023-05-19T05:19:26.511Z,5.80
2023-05-19T05:21:54.790Z,6.05
2023-05-19T05:24:22.066Z,6.05
2023-05-19T05:26:54.068Z,6.40
2023-05-19T05:29:21.517Z,6.30
2023-05-19T05:31:48.592Z,6.30
2023-05-19T05:34:15.901Z,6.75
2023-05-19T05:36:43.832Z,6.63
2023-05-19T05:39:10.966Z,7.00
2023-05-19T05:41:40.260Z,6.72
2023-05-19T05:44:11.245Z,7.40
2023-05-19T05:46:41.057Z,6.97
2023-05-19T05:49:08.589Z,7.90
2023-05-19T05:51:35.991Z,7.25
2023-05-19T05:54:06.247Z,7.97
2023-05-19T05:56:38.096Z,7.72
2023-05-19T05:59:08.026Z,7.93
2023-05-19T06:01:36.349Z,8.20
2023-05-19T06:04:05.554Z,8.45
2023-05-19T06:06:33.018Z,8.73
2023-05-19T06:09:02.171Z,9.38
2023-05-19T06:11:30.094Z,9.23
2023-05-19T06:13:59.095Z,9.02
2023-05-19T06:16:55.983Z,9.07
2023-05-19T06:19:25.466Z,9.35
2023-05-19T06:21:52.970Z,9.55
2023-05-19T06:24:20.047Z,8.75
2023-05-19T06:26:48.299Z,9.57
2023-05-19T06:29:17.467Z,8.82
2023-05-19T06:31:49.195Z,9.05
2023-05-19T06:34:17.822Z,9.85
2023-05-19T06:36:46.979Z,9.82
2023-05-19T06:39:14.798Z,9.73
2023-05-19T06:41:41.842Z,9.80
2023-05-19T06:44:09.366Z,9.75
2023-05-19T06:46:36.531Z,9.65
2023-05-19T06:49:04.527Z,9.32
2023-05-19T06:51:36.631Z,9.88
2023-05-19T06:54:04.622Z,9.50
2023-05-19T06:56:31.644Z,9.55
2023-05-19T06:58:58.735Z,9.13
2023-05-19T07:01:32.193Z,8.57
2023-05-19T07:03:59.806Z,9.07
2023-05-19T07:06:27.369Z,9.93
2023-05-19T07:08:54.582Z,9.30
2023-05-19T07:11:22.164Z,8.88
2023-05-19T07:13:49.533Z,8.85
2023-05-19T07:16:23.256Z,8.77
2023-05-19T07:18:50.638Z,9.10
2023-05-19T07:21:18.014Z,8.55
2023-05-19T07:23:45.092Z,9.63
2023-05-19T07:26:12.220Z,9.50
2023-05-19T07:28:41.421Z,9.18
2023-05-19T07:31:09.686Z,9.65
2023-05-19T07:33:36.955Z,9.98
2023-05-19T07:36:04.732Z,9.20
2023-05-19T07:38:34.636Z,9.38
2023-05-19T07:41:02.655Z,9.88
2023-05-19T07:43:29.823Z,10.18
2023-05-19T07:45:56.890Z,8.65
2023-05-19T07:48:25.856Z,8.95
2023-05-19T07:50:53.287Z,8.10
2023-05-19T07:53:20.945Z,8.05
2023-05-19T07:55:47.969Z,7.80
2023-05-19T07:58:15.733Z,10.15
2023-05-19T08:00:43.405Z,7.80
2023-05-19T08:03:10.799Z,7.80
2023-05-19T08:05:38.260Z,9.10
2023-05-19T08:08:06.116Z,7.60
2023-05-19T08:10:33.338Z,6.53
2023-05-19T08:13:00.603Z,7.25
2023-05-19T08:15:27.767Z,7.30
2023-05-19T08:17:55.054Z,6.45
2023-05-19T08:20:23.071Z,6.00
2023-05-19T08:22:50.306Z,5.82
2023-05-19T08:25:17.492Z,6.00
2023-05-19T08:27:44.515Z,6.05
2023-05-19T08:30:12.360Z,5.25
2023-05-19T08:32:39.727Z,5.10
2023-05-19T08:35:07.711Z,5.03
2023-05-19T08:37:37.270Z,4.50
2023-05-19T08:40:05.796Z,5.68
2023-05-19T08:42:34.046Z,4.90
2023-05-19T08:45:02.324Z,4.57
2023-05-19T08:47:33.496Z,4.40
2023-05-19T08:50:11.132Z,4.53
2023-05-19T08:53:03.206Z,3.92
2023-05-19T08:55:34.336Z,3.90
2023-05-19T08:58:04.532Z,4.32
2023-05-19T09:00:33.334Z,4.07
2023-05-19T09:05:34.123Z,3.80
2023-05-19T09:08:02.972Z,4.32
2023-05-19T09:10:30.082Z,3.65
2023-05-19T09:12:57.182Z,4.05
2023-05-19T09:15:28.464Z,3.97
2023-05-19T09:18:12.556Z,3.55
2023-05-19T09:20:44.807Z,3.50
2023-05-19T09:23:17.118Z,5.05
2023-05-19T09:25:53.046Z,3.90
2023-05-19T09:28:32.298Z,3.60
2023-05-19T09:31:12.447Z,3.95
2023-05-19T09:33:46.102Z,3.78
2023-05-19T09:36:14.015Z,3.33
2023-05-19T09:38:41.591Z,3.35
2023-05-19T09:41:09.804Z,3.17
2023-05-19T09:43:37.024Z,3.38
2023-05-19T09:46:11.242Z,3.67
2023-05-19T09:48:40.394Z,3.22
2023-05-19T09:51:11.124Z,2.92
2023-05-19T09:53:39.225Z,2.80
2023-05-19T09:56:08.995Z,3.20
2023-05-19T09:58:37.231Z,3.20
2023-05-19T10:01:05.503Z,3.15
2023-05-19T10:03:34.036Z,2.88
2023-05-19T10:06:02.134Z,2.67
2023-05-19T10:08:34.373Z,2.50
2023-05-19T10:11:02.631Z,2.67
2023-05-19T10:13:31.094Z,2.95
2023-05-19T10:15:59.914Z,2.80
2023-05-19T10:18:29.816Z,2.30
2023-05-19T10:20:58.302Z,2.13
2023-05-19T10:23:26.598Z,2.25
2023-05-19T10:25:57.872Z,2.45
2023-05-19T10:28:30.543Z,2.20
2023-05-19T10:31:01.136Z,2.30
2023-05-19T10:33:57.315Z,2.03
2023-05-19T10:36:39.320Z,2.05
2023-05-19T10:39:13.339Z,2.22
2023-05-19T10:42:38.337Z,2.00
2023-05-19T10:45:20.189Z,2.50
2023-05-19T10:47:47.537Z,2.50
2023-05-19T10:50:14.885Z,2.10
2023-05-19T10:52:41.859Z,2.22
2023-05-19T10:55:48.025Z,2.60
2023-05-19T10:58:15.139Z,2.20
2023-05-19T11:00:42.210Z,2.08
2023-05-19T11:03:16.704Z,2.40
2023-05-19T11:05:46.963Z,2.22
2023-05-19T11:08:14.286Z,2.00
2023-05-19T11:10:46.271Z,2.00
2023-05-19T11:13:22.628Z,2.00
2023-05-19T11:15:50.266Z,2.30
2023-05-19T11:18:17.545Z,1.80
2023-05-19T11:20:55.580Z,2.10
2023-05-19T11:23:25.983Z,2.00
2023-05-19T11:25:56.217Z,2.20
2023-05-19T11:28:28.211Z,2.00
2023-05-19T11:30:57.895Z,2.47
2023-05-19T11:33:29.276Z,2.00
2023-05-19T11:36:00.587Z,2.22
2023-05-19T11:38:30.171Z,1.70
2023-05-19T11:40:57.823Z,4.68
2023-05-19T11:43:26.255Z,2.00
2023-05-19T11:45:56.554Z,2.10
2023-05-19T11:48:24.867Z,2.40
2023-05-19T11:50:52.706Z,1.92
2023-05-19T11:53:20.232Z,2.78
2023-05-19T11:55:48.905Z,1.85
2023-05-19T11:58:17.168Z,2.20
2023-05-19T12:00:48.626Z,1.75
2023-05-19T12:03:17.618Z,1.60
2023-05-19T12:05:48.520Z,2.00
2023-05-19T12:08:19.582Z,1.83
2023-05-19T12:10:53.107Z,1.83
2023-05-19T12:13:21.134Z,2.10
2023-05-19T12:15:50.769Z,1.90
2023-05-19T12:18:18.041Z,1.73
2023-05-19T12:20:45.217Z,1.75
2023-05-19T12:23:12.931Z,1.70
2023-05-19T12:25:40.068Z,1.85
2023-05-19T12:28:07.507Z,2.28
2023-05-19T12:30:35.489Z,1.50
2023-05-19T12:33:03.673Z,2.13
2023-05-19T12:35:34.574Z,2.00
2023-05-19T12:38:08.124Z,1.80
2023-05-19T12:40:36.769Z,1.65
2023-05-19T12:43:04.534Z,1.67
2023-05-19T12:45:40.044Z,2.17
2023-05-19T12:48:17.105Z,1.70
2023-05-19T12:50:48.677Z,2.33
2023-05-19T12:53:15.832Z,1.65
2023-05-19T12:55:45.061Z,2.13
2023-05-19T12:58:12.968Z,2.05
2023-05-19T13:00:45.444Z,2.00
2023-05-19T13:03:17.878Z,1.80
2023-05-19T13:05:51.167Z,1.73
2023-05-19T13:08:24.234Z,1.60
2023-05-19T13:10:51.316Z,1.50
2023-05-19T13:13:19.494Z,1.90
2023-05-19T13:15:50.974Z,1.75
2023-05-19T13:18:18.438Z,1.98
2023-05-19T13:20:47.081Z,2.00
2023-05-19T13:23:14.733Z,1.80
2023-05-19T13:25:43.305Z,1.95
2023-05-19T13:28:10.918Z,1.50
2023-05-19T13:30:39.669Z,2.00
2023-05-19T13:33:06.982Z,1.63
2023-05-19T13:35:37.635Z,2.08
2023-05-19T13:38:06.893Z,1.80
2023-05-19T13:40:35.268Z,1.95
2023-05-19T13:43:04.304Z,2.03
2023-05-19T13:45:31.400Z,1.60
2023-05-19T13:47:58.546Z,1.70
2023-05-19T13:50:25.862Z,1.70
2023-05-19T13:52:53.481Z,1.90
2023-05-19T13:55:20.830Z,1.90
2023-05-19T13:57:47.915Z,1.80
2023-05-19T14:00:15.505Z,1.70
2023-05-19T14:02:43.135Z,1.48
2023-05-19T14:05:10.613Z,1.40
2023-05-19T14:07:37.618Z,1.77
2023-05-19T14:10:06.898Z,1.60
2023-05-19T14:12:49.482Z,1.80
2023-05-19T14:15:22.837Z,1.70
2023-05-19T14:17:49.889Z,1.90
2023-05-19T14:20:17.065Z,2.20
2023-05-19T14:22:44.086Z,1.63
2023-05-19T14:25:11.468Z,1.80
2023-05-19T14:27:40.056Z,1.88
2023-05-19T14:30:09.249Z,1.60
2023-05-19T14:32:36.404Z,1.70
2023-05-19T14:35:04.256Z,1.90
2023-05-19T14:37:32.285Z,1.65
2023-05-19T14:39:59.947Z,1.60
2023-05-19T14:42:26.990Z,1.70
2023-05-19T14:44:54.167Z,1.70
2023-05-19T14:47:21.615Z,1.77
2023-05-19T14:49:48.861Z,1.92
2023-05-19T14:52:16.148Z,1.80
2023-05-19T14:54:43.166Z,1.75
2023-05-19T14:57:10.161Z,1.73
2023-05-19T14:59:38.105Z,1.50
2023-05-19T15:02:05.731Z,1.92
2023-05-19T15:04:32.687Z,1.95
2023-05-19T15:07:09.858Z,2.55
2023-05-19T15:09:37.905Z,1.80
2023-05-19T15:12:05.209Z,1.73
2023-05-19T15:14:32.268Z,1.58
2023-05-19T15:16:59.488Z,1.90
2023-05-19T15:19:26.808Z,1.70
2023-05-19T15:21:54.245Z,1.60
2023-05-19T15:24:21.590Z,1.55
2023-05-19T15:26:48.906Z,2.10
2023-05-19T15:29:15.944Z,1.58
2023-05-19T15:31:43.144Z,2.00
2023-05-19T15:34:10.442Z,1.70
2023-05-19T15:36:37.545Z,1.42
2023-05-19T15:39:05.174Z,1.50
2023-05-19T15:41:32.259Z,1.75
2023-05-19T15:44:02.743Z,1.83
2023-05-19T15:46:30.700Z,1.80
2023-05-19T15:48:58.277Z,1.77
2023-05-19T15:51:26.318Z,1.55
2023-05-19T15:53:53.433Z,2.00
2023-05-19T15:56:21.691Z,1.80
2023-05-19T15:58:49.272Z,1.52
2023-05-19T16:01:17.014Z,2.05
2023-05-19T16:03:47.903Z,1.50
2023-05-19T16:06:14.967Z,1.38
2023-05-19T16:08:42.067Z,1.70
2023-05-19T16:11:09.202Z,1.48
2023-05-19T16:13:36.463Z,1.50
2023-05-19T16:16:03.824Z,1.38
2023-05-19T16:18:31.016Z,1.60
2023-05-19T16:20:58.159Z,1.60
2023-05-19T16:23:25.408Z,1.80
2023-05-19T16:25:54.763Z,2.00
2023-05-19T16:28:24.475Z,2.08
2023-05-19T16:30:52.127Z,1.80
2023-05-19T16:33:19.497Z,1.80
2023-05-19T16:35:46.611Z,1.33
2023-05-19T16:38:13.841Z,1.80
2023-05-19T16:40:41.032Z,1.83
2023-05-19T16:43:08.167Z,1.80
2023-05-19T16:45:35.350Z,1.70
2023-05-19T16:48:02.794Z,1.63
2023-05-19T16:50:30.878Z,1.80
2023-05-19T16:52:57.981Z,1.40
2023-05-19T16:55:26.840Z,1.40
2023-05-19T16:57:54.153Z,2.35
2023-05-19T17:00:21.674Z,1.40
2023-05-19T17:02:49.003Z,1.70
2023-05-19T17:05:16.146Z,1.60
2023-05-19T17:07:43.099Z,1.80
2023-05-19T17:10:10.528Z,1.60
2023-05-19T17:12:37.723Z,1.95
2023-05-19T17:15:05.358Z,1.70
2023-05-19T17:17:32.505Z,1.52
2023-05-19T17:19:59.951Z,1.48
2023-05-19T17:22:28.254Z,1.23
2023-05-19T17:24:57.641Z,1.70
2023-05-19T17:27:25.079Z,1.40
2023-05-19T17:29:52.164Z,1.88
2023-05-19T17:32:22.246Z,1.30
2023-05-19T17:34:49.469Z,1.50
2023-05-19T17:37:19.114Z,1.75
2023-05-19T17:39:46.227Z,1.70
2023-05-19T17:42:13.246Z,1.42
2023-05-19T17:44:40.484Z,1.58
2023-05-19T17:47:08.261Z,1.38
2023-05-19T17:49:35.280Z,1.63
2023-05-19T17:52:02.665Z,1.67
2023-05-19T17:54:30.089Z,1.65
2023-05-19T17:56:58.865Z,1.90
2023-05-19T17:59:26.410Z,1.70
2023-05-19T18:01:53.953Z,1.73
2023-05-19T18:04:21.502Z,1.95
2023-05-19T18:06:51.520Z,2.38
2023-05-19T18:09:23.423Z,1.80
2023-05-19T18:11:50.462Z,1.80
2023-05-19T18:14:17.726Z,2.05
2023-05-19T18:16:44.812Z,2.08
2023-05-19T18:19:12.063Z,1.98
2023-05-19T18:21:39.345Z,1.58
2023-05-19T18:24:07.234Z,1.67
2023-05-19T18:26:34.517Z,1.75
2023-05-19T18:29:05.064Z,2.08
2023-05-19T18:31:32.477Z,1.17
2023-05-19T18:33:59.608Z,1.48
2023-05-19T18:36:26.731Z,1.50
2023-05-19T18:38:55.171Z,1.67
2023-05-19T18:41:22.331Z,1.80
2023-05-19T18:43:49.467Z,1.85
2023-05-19T18:46:19.925Z,1.60
2023-05-19T18:48:47.186Z,1.35
2023-05-19T18:51:15.949Z,1.83
2023-05-19T18:53:43.132Z,1.80
2023-05-19T18:56:11.729Z,2.20
2023-05-19T18:58:38.936Z,1.70
2023-05-19T19:01:06.117Z,1.75
2023-05-19T19:03:33.200Z,1.70
2023-05-19T19:06:00.644Z,1.60
2023-05-19T19:08:27.684Z,1.88
2023-05-19T19:10:59.334Z,1.90
2023-05-19T19:13:26.704Z,1.70
2023-05-19T19:15:53.864Z,1.60
2023-05-19T19:18:20.995Z,2.10
2023-05-19T19:20:48.240Z,1.95
2023-05-19T19:23:15.299Z,2.30
2023-05-19T19:25:42.623Z,1.60
2023-05-19T19:28:10.591Z,1.90
2023-05-19T19:30:37.757Z,1.88
2023-05-19T19:33:06.548Z,2.08
2023-05-19T19:35:33.961Z,2.00
2023-05-19T19:38:01.141Z,1.98
2023-05-19T19:40:29.385Z,1.92
2023-05-19T19:42:56.764Z,2.03
2023-05-19T19:45:23.835Z,2.03
2023-05-19T19:47:51.885Z,2.20
2023-05-19T19:50:19.077Z,2.15
2023-05-19T19:52:46.109Z,1.75
2023-05-19T19:55:13.372Z,1.83
2023-05-19T19:57:40.574Z,1.98
2023-05-19T20:00:08.650Z,2.03
2023-05-19T20:02:45.551Z,2.20
2023-05-19T20:05:18.834Z,1.50
2023-05-19T20:07:45.989Z,2.22
2023-05-19T20:10:13.026Z,1.63
2023-05-19T20:12:39.991Z,1.50
2023-05-19T20:15:08.353Z,1.75
2023-05-19T20:17:35.643Z,1.85
2023-05-19T20:20:08.096Z,1.65
2023-05-19T20:22:35.241Z,1.70
2023-05-19T20:25:02.268Z,1.60
2023-05-19T20:27:29.583Z,1.90
2023-05-19T20:29:56.794Z,1.75
2023-05-19T20:32:24.221Z,1.88
2023-05-19T20:34:51.401Z,1.52
2023-05-19T20:37:18.641Z,1.80
2023-05-19T20:39:45.775Z,1.88
2023-05-19T20:42:12.884Z,1.60
2023-05-19T20:44:39.825Z,2.08
2023-05-19T20:47:08.309Z,1.50
2023-05-19T20:49:35.676Z,1.48
2023-05-19T20:52:02.772Z,1.55
2023-05-19T20:54:30.063Z,1.20
2023-05-19T20:56:57.336Z,1.35
2023-05-19T20:59:24.635Z,1.50
2023-05-19T21:01:51.724Z,1.40
2023-05-19T21:04:19.084Z,1.50
2023-05-19T21:06:46.392Z,1.83
2023-05-19T21:09:14.828Z,1.40
2023-05-19T21:11:41.885Z,1.40
2023-05-19T21:14:09.322Z,1.35
2023-05-19T21:16:38.907Z,1.50
2023-05-19T21:19:07.032Z,1.63
2023-05-19T21:21:34.468Z,1.42
2023-05-19T21:24:02.262Z,1.50
2023-05-19T21:26:29.264Z,1.55
2023-05-19T21:28:56.772Z,1.40
2023-05-19T21:31:23.941Z,1.63
2023-05-19T21:33:51.234Z,1.80
2023-05-19T21:36:18.500Z,1.80
2023-05-19T21:38:46.165Z,1.80
2023-05-19T21:41:13.110Z,1.40
2023-05-19T21:43:42.098Z,1.70
2023-05-19T21:46:09.504Z,1.33
2023-05-19T21:48:36.634Z,1.52
2023-05-19T21:51:03.956Z,1.58
2023-05-19T21:53:32.706Z,1.60
2023-05-19T21:56:00.155Z,1.52
2023-05-19T21:58:27.457Z,1.65
2023-05-19T22:00:54.665Z,1.85
2023-05-19T22:03:22.166Z,1.55
2023-05-19T22:05:53.440Z,2.20
2023-05-19T22:08:22.380Z,1.83
2023-05-19T22:10:51.154Z,2.15
2023-05-19T22:13:19.270Z,2.20
2023-05-19T22:15:46.724Z,2.00
2023-05-19T22:18:13.810Z,1.80
2023-05-19T22:20:41.047Z,2.08
2023-05-19T22:23:08.208Z,2.00
2023-05-19T22:25:35.382Z,1.95
2023-05-19T22:28:02.540Z,1.88
2023-05-19T22:30:29.611Z,1.75
2023-05-19T22:32:56.665Z,1.98
2023-05-19T22:35:24.379Z,1.85
2023-05-19T22:37:51.485Z,1.88
2023-05-19T22:40:18.598Z,2.00
2023-05-19T22:42:45.650Z,2.05
2023-05-19T22:45:12.780Z,1.80
2023-05-19T22:47:40.159Z,1.85
2023-05-19T22:50:10.238Z,1.88
2023-05-19T22:52:37.589Z,2.10
2023-05-19T22:55:05.267Z,2.00
2023-05-19T22:57:32.649Z,2.08
2023-05-19T22:59:59.766Z,2.00
2023-05-19T23:02:26.955Z,1.60
2023-05-19T23:04:54.413Z,2.00
2023-05-19T23:07:21.677Z,1.52
2023-05-19T23:09:48.769Z,1.67
2023-05-19T23:12:16.653Z,1.70
2023-05-19T23:14:44.000Z,1.48
2023-05-19T23:17:11.142Z,1.30
2023-05-19T23:19:38.118Z,1.40
2023-05-19T23:22:05.346Z,1.50
2023-05-19T23:24:32.542Z,1.42
2023-05-19T23:27:01.100Z,1.77
2023-05-19T23:29:28.128Z,1.65
2023-05-19T23:31:56.122Z,1.70
2023-05-19T23:34:23.296Z,1.73
2023-05-19T23:36:50.423Z,1.75
2023-05-19T23:39:17.554Z,1.63
2023-05-19T23:41:44.648Z,1.58
2023-05-19T23:44:11.810Z,1.55
2023-05-19T23:46:38.815Z,1.30
2023-05-19T23:49:06.444Z,1.60
2023-05-19T23:51:33.476Z,1.50
2023-05-19T23:54:00.540Z,1.50
2023-05-19T23:56:27.736Z,1.40
2023-05-19T23:58:54.789Z,1.33
